createdAt,value
2023-02-01T00:01:48.547Z,2.10
2023-02-01T00:06:47.100Z,1.27
2023-02-01T00:11:45.633Z,2.10
2023-02-01T00:16:44.189Z,0.93
2023-02-01T00:21:45.219Z,4.33
2023-02-01T00:26:45.687Z,1.80
2023-02-01T00:31:44.998Z,2.53
2023-02-01T00:36:46.121Z,2.00
2023-02-01T00:41:44.887Z,2.23
2023-02-01T00:46:43.518Z,1.90
2023-02-01T00:51:42.080Z,3.03
2023-02-01T00:56:43.388Z,2.67
2023-02-01T01:01:41.999Z,2.90
2023-02-01T01:06:40.653Z,1.57
2023-02-01T01:11:40.634Z,2.40
2023-02-01T01:16:40.767Z,2.97
2023-02-01T01:21:39.446Z,2.63
2023-02-01T01:26:38.703Z,2.83
2023-02-01T01:31:37.556Z,1.80
2023-02-01T01:36:37.969Z,2.40
2023-02-01T01:41:36.797Z,1.37
2023-02-01T01:46:47.064Z,3.13
2023-02-01T01:51:51.675Z,2.17
2023-02-01T01:56:55.574Z,1.60
2023-02-01T02:01:54.875Z,2.87
2023-02-01T02:07:01.331Z,2.93
2023-02-01T02:12:00.335Z,1.60
2023-02-01T02:17:16.035Z,2.40
2023-02-01T02:22:45.141Z,2.30
2023-02-01T02:27:53.591Z,3.53
2023-02-01T02:33:28.796Z,3.10
2023-02-01T02:38:35.421Z,1.80
2023-02-01T02:44:03.178Z,1.97
2023-02-01T02:49:07.668Z,2.47
2023-02-01T02:54:29.949Z,1.43
2023-02-01T02:59:47.737Z,2.17
2023-02-01T03:04:46.623Z,3.13
2023-02-01T03:09:50.063Z,3.40
2023-02-01T03:14:53.333Z,3.60
2023-02-01T03:19:54.471Z,1.80
2023-02-01T03:24:59.069Z,2.50
2023-02-01T03:30:03.685Z,3.00
2023-02-01T03:35:05.905Z,2.53
2023-02-01T03:40:11.295Z,3.50
2023-02-01T03:45:15.767Z,1.90
2023-02-01T03:50:17.999Z,2.30
2023-02-01T03:55:21.607Z,2.23
2023-02-01T04:00:24.608Z,1.97
2023-02-01T04:05:24.185Z,1.60
2023-02-01T04:10:34.431Z,1.23
2023-02-01T04:15:33.038Z,0.90
2023-02-01T04:21:32.912Z,0.80
2023-02-01T04:26:32.883Z,0.80
2023-02-01T04:31:31.574Z,1.10
2023-02-01T04:36:30.377Z,1.00
2023-02-01T04:41:28.961Z,0.80
2023-02-01T04:46:29.474Z,1.67
2023-02-01T04:51:28.057Z,1.23
2023-02-01T04:56:26.668Z,1.50
2023-02-01T05:01:26.842Z,1.20
2023-02-01T05:06:27.172Z,1.53
2023-02-01T05:11:43.263Z,1.00
2023-02-01T05:16:41.812Z,1.23
2023-02-01T05:21:41.413Z,1.60
2023-02-01T05:26:39.991Z,1.70
2023-02-01T05:31:38.659Z,0.90
2023-02-01T05:36:37.245Z,0.70
2023-02-01T05:41:37.170Z,1.10
2023-02-01T05:46:36.220Z,1.10
2023-02-01T05:51:34.856Z,1.17
2023-02-01T05:56:33.445Z,1.27
2023-02-01T06:01:33.794Z,1.27
2023-02-01T06:06:31.969Z,1.07
2023-02-01T06:11:32.707Z,0.97
2023-02-01T06:16:33.073Z,0.70
2023-02-01T06:21:31.340Z,1.10
2023-02-01T06:26:30.502Z,0.60
2023-02-01T06:31:29.475Z,0.60
2023-02-01T06:36:29.757Z,0.60
2023-02-01T06:41:29.549Z,1.00
2023-02-01T06:46:28.138Z,0.80
2023-02-01T06:51:30.261Z,0.70
2023-02-01T06:56:28.814Z,0.53
2023-02-01T07:01:26.983Z,0.70
2023-02-01T07:06:25.325Z,0.80
2023-02-01T07:11:25.621Z,0.93
2023-02-01T07:16:24.825Z,0.70
2023-02-01T07:21:23.731Z,0.60
2023-02-01T07:26:22.292Z,1.53
2023-02-01T07:31:23.251Z,0.87
2023-02-01T07:36:22.197Z,0.90
2023-02-01T07:41:20.493Z,1.20
2023-02-01T07:46:19.115Z,0.77
2023-02-01T07:51:19.730Z,0.83
2023-02-01T07:56:19.865Z,0.80
2023-02-01T08:01:25.878Z,1.47
2023-02-01T08:06:26.490Z,1.60
2023-02-01T08:11:25.980Z,1.60
2023-02-01T08:16:26.112Z,1.80
2023-02-01T08:21:29.778Z,2.37
2023-02-01T08:26:28.881Z,2.00
2023-02-01T08:31:29.345Z,2.10
2023-02-01T08:36:31.656Z,1.47
2023-02-01T08:41:33.060Z,2.67
2023-02-01T08:46:31.797Z,2.03
2023-02-01T08:51:31.735Z,2.33
2023-02-01T08:56:30.887Z,2.53
2023-02-01T09:01:29.609Z,2.67
2023-02-01T09:06:28.398Z,0.90
2023-02-01T09:11:28.371Z,2.17
2023-02-01T09:16:26.940Z,1.60
2023-02-01T09:21:26.334Z,1.63
2023-02-01T09:26:31.497Z,1.93
2023-02-01T09:31:33.075Z,3.83
2023-02-01T09:36:31.431Z,2.27
2023-02-01T09:41:40.160Z,1.90
2023-02-01T09:46:39.809Z,1.50
2023-02-01T09:51:40.397Z,1.60
2023-02-01T09:56:46.784Z,2.00
2023-02-01T10:01:46.716Z,2.20
2023-02-01T10:06:57.345Z,1.93
2023-02-01T10:12:15.362Z,2.20
2023-02-01T10:17:25.471Z,2.70
2023-02-01T10:22:58.995Z,2.87
2023-02-01T10:27:57.363Z,1.20
2023-02-01T10:32:59.211Z,4.53
2023-02-01T10:38:03.580Z,3.33
2023-02-01T10:43:03.823Z,2.83
2023-02-01T10:48:05.986Z,3.63
2023-02-01T10:53:07.951Z,2.10
2023-02-01T10:58:08.287Z,2.20
2023-02-01T11:08:30.845Z,1.87
2023-02-01T11:13:34.535Z,2.60
2023-02-01T11:18:37.335Z,2.90
2023-02-01T11:23:44.228Z,1.87
2023-02-01T11:28:49.952Z,1.67
2023-02-01T11:33:52.685Z,2.20
2023-02-01T11:39:09.222Z,1.47
2023-02-01T11:44:24.093Z,2.23
2023-02-01T11:49:25.572Z,3.27
2023-02-01T11:54:39.140Z,2.50
2023-02-01T11:59:57.293Z,2.67
2023-02-01T12:05:16.722Z,1.33
2023-02-01T12:10:30.755Z,1.33
2023-02-01T12:15:49.657Z,1.20
2023-02-01T12:21:05.690Z,2.10
2023-02-01T12:26:22.917Z,1.00
2023-02-01T12:31:47.362Z,1.00
2023-02-01T12:36:54.641Z,0.50
2023-02-01T12:42:01.073Z,1.30
2023-02-01T12:47:03.276Z,0.80
2023-02-01T12:52:06.427Z,1.00
2023-02-01T12:57:09.122Z,0.87
2023-02-01T13:02:16.957Z,0.70
2023-02-01T13:07:20.687Z,0.80
2023-02-01T13:12:24.569Z,2.10
2023-02-01T13:17:26.817Z,0.67
2023-02-01T13:22:31.490Z,0.80
2023-02-01T13:27:33.123Z,0.53
2023-02-01T13:33:51.561Z,0.70
2023-02-01T13:38:28.636Z,0.60
2023-02-01T13:43:31.549Z,0.50
2023-02-01T13:48:35.791Z,0.60
2023-02-01T13:53:38.185Z,0.70
2023-02-01T13:58:40.130Z,1.20
2023-02-01T14:03:49.220Z,0.50
2023-02-01T14:09:03.919Z,0.50
2023-02-01T14:14:43.913Z,0.60
2023-02-01T14:19:42.467Z,0.50
2023-02-01T14:24:41.298Z,0.60
2023-02-01T14:29:44.030Z,0.60
2023-02-01T14:34:55.800Z,0.80
2023-02-01T14:40:02.359Z,0.60
2023-02-01T14:45:33.804Z,0.80
2023-02-01T14:50:41.603Z,0.70
2023-02-01T14:55:43.838Z,0.90
2023-02-01T15:00:50.551Z,0.80
2023-02-01T15:05:58.343Z,0.90
2023-02-01T15:10:58.054Z,0.80
2023-02-01T15:16:07.947Z,0.80
2023-02-01T15:21:27.810Z,0.80
2023-02-01T15:26:28.934Z,0.93
2023-02-01T15:31:39.932Z,0.70
2023-02-01T15:36:42.429Z,1.23
2023-02-01T15:41:45.538Z,0.73
2023-02-01T15:46:47.489Z,0.70
2023-02-01T15:51:49.773Z,1.17
2023-02-01T15:56:54.715Z,0.97
2023-02-01T16:01:53.680Z,1.10
2023-02-01T16:06:56.276Z,1.77
2023-02-01T16:11:58.663Z,1.83
2023-02-01T16:16:58.999Z,1.37
2023-02-01T16:22:00.192Z,1.00
2023-02-01T16:26:58.465Z,1.80
2023-02-01T16:31:56.909Z,1.43
2023-02-01T16:36:58.082Z,1.70
2023-02-01T16:42:00.002Z,2.07
2023-02-01T16:46:59.330Z,2.20
2023-02-01T16:52:00.529Z,1.60
2023-02-01T16:57:00.200Z,4.07
2023-02-01T17:01:58.416Z,2.27
2023-02-01T17:06:56.590Z,3.00
2023-02-01T17:18:58.040Z,2.33
2023-02-01T17:23:58.841Z,2.30
2023-02-01T17:28:57.980Z,2.23
2023-02-01T17:33:57.574Z,1.80
2023-02-01T17:39:05.337Z,1.97
2023-02-01T17:44:04.746Z,2.63
2023-02-01T17:49:05.784Z,2.60
2023-02-01T17:54:04.206Z,3.07
2023-02-01T17:59:02.387Z,1.73
2023-02-01T18:04:00.598Z,1.23
2023-02-01T18:09:00.186Z,1.53
2023-02-01T18:13:58.574Z,1.57
2023-02-01T18:19:01.672Z,1.73
2023-02-01T18:24:01.539Z,1.50
2023-02-01T18:28:59.866Z,2.10
2023-02-01T18:33:59.808Z,5.40
2023-02-01T18:38:58.099Z,3.60
2023-02-01T18:43:57.718Z,2.80
2023-02-01T18:48:55.917Z,1.80
2023-02-01T18:53:54.151Z,1.57
2023-02-01T18:58:52.409Z,1.60
2023-02-01T19:03:57.588Z,2.40
2023-02-01T19:09:02.074Z,2.00
2023-02-01T19:14:00.310Z,2.00
2023-02-01T19:18:59.857Z,1.77
2023-02-01T19:23:58.429Z,2.13
2023-02-01T19:28:59.562Z,1.63
2023-02-01T19:33:59.614Z,2.53
2023-02-01T19:38:58.465Z,2.50
2023-02-01T19:43:59.213Z,2.50
2023-02-01T19:48:57.673Z,1.53
2023-02-01T19:53:57.918Z,2.10
2023-02-01T19:58:56.462Z,1.27
2023-02-01T20:03:56.183Z,2.40
2023-02-01T20:08:55.801Z,2.30
2023-02-01T20:13:54.654Z,2.60
2023-02-01T20:18:52.877Z,2.03
2023-02-01T20:23:51.650Z,3.10
2023-02-01T20:28:52.168Z,2.97
2023-02-01T20:33:50.693Z,3.27
2023-02-01T20:38:49.251Z,2.77
2023-02-01T20:43:48.106Z,3.87
2023-02-01T20:48:50.331Z,2.17
2023-02-01T20:53:51.586Z,3.20
2023-02-01T20:58:50.137Z,2.80
2023-02-01T21:03:50.049Z,2.07
2023-02-01T21:08:48.322Z,1.93
2023-02-01T21:13:51.463Z,3.37
2023-02-01T21:18:53.971Z,2.20
2023-02-01T21:23:53.212Z,2.70
2023-02-01T21:28:53.545Z,2.00
2023-02-01T21:33:54.033Z,3.87
2023-02-01T21:38:55.359Z,3.27
2023-02-01T21:43:53.875Z,2.20
2023-02-01T21:49:05.743Z,2.43
2023-02-01T21:54:05.702Z,2.17
2023-02-01T21:59:03.985Z,1.53
2023-02-01T22:04:04.389Z,3.93
2023-02-01T22:15:52.521Z,2.63
2023-02-01T22:20:52.402Z,2.43
2023-02-01T22:25:51.162Z,1.43
2023-02-01T22:30:49.872Z,3.83
2023-02-01T22:35:50.253Z,3.17
2023-02-01T22:40:55.944Z,2.87
2023-02-01T22:45:54.910Z,3.87
2023-02-01T22:50:54.007Z,2.00
2023-02-01T22:55:52.545Z,2.40
2023-02-01T23:00:52.464Z,3.27
2023-02-01T23:05:51.080Z,2.10
2023-02-01T23:10:49.514Z,2.33
2023-02-01T23:15:48.417Z,2.93
2023-02-01T23:20:47.994Z,2.10
2023-02-01T23:25:51.526Z,2.97
2023-02-01T23:30:50.167Z,3.90
2023-02-01T23:35:57.824Z,3.70
2023-02-01T23:40:59.477Z,2.90
2023-02-01T23:45:59.409Z,2.47
2023-02-01T23:50:59.367Z,2.70
2023-02-01T23:55:58.794Z,3.43
